sensor_id;sensor_type;location;lat;lon;timestamp;P1;durP1;ratioP1;P2;durP2;ratioP2
19358;SDS011;9815;52.334;20.890;2023-10-31T00:01:10;28.50;;;15.83;;
19358;SDS011;9815;52.334;20.890;2023-10-31T00:03:38;29.73;;;16.53;;
19358;SDS011;9815;52.334;20.890;2023-10-31T00:06:09;29.90;;;15.90;;
19358;SDS011;9815;52.334;20.890;2023-10-31T00:08:37;28.30;;;16.20;;
19358;SDS011;9815;52.334;20.890;2023-10-31T00:11:07;38.03;;;17.30;;
19358;SDS011;9815;52.334;20.890;2023-10-31T00:13:38;31.27;;;16.37;;
19358;SDS011;9815;52.334;20.890;2023-10-31T00:16:06;38.20;;;18.27;;
19358;SDS011;9815;52.334;20.890;2023-10-31T00:18:35;32.43;;;17.20;;
19358;SDS011;9815;52.334;20.890;2023-10-31T00:21:03;30.23;;;17.10;;
19358;SDS011;9815;52.334;20.890;2023-10-31T00:23:32;31.67;;;17.20;;
19358;SDS011;9815;52.334;20.890;2023-10-31T00:26:00;32.47;;;17.37;;
19358;SDS011;9815;52.334;20.890;2023-10-31T00:28:30;28.63;;;16.03;;
19358;SDS011;9815;52.334;20.890;2023-10-31T00:30:58;35.17;;;17.37;;
19358;SDS011;9815;52.334;20.890;2023-10-31T00:33:27;30.23;;;16.77;;
19358;SDS011;9815;52.334;20.890;2023-10-31T00:35:55;30.10;;;16.87;;
19358;SDS011;9815;52.334;20.890;2023-10-31T00:38:23;27.83;;;15.73;;
19358;SDS011;9815;52.334;20.890;2023-10-31T00:40:52;35.93;;;16.27;;
19358;SDS011;9815;52.334;20.890;2023-10-31T00:43:20;33.87;;;15.37;;
19358;SDS011;9815;52.334;20.890;2023-10-31T00:45:50;34.53;;;15.27;;
19358;SDS011;9815;52.334;20.890;2023-10-31T00:48:18;26.50;;;15.37;;
19358;SDS011;9815;52.334;20.890;2023-10-31T00:50:47;30.83;;;15.67;;
19358;SDS011;9815;52.334;20.890;2023-10-31T00:53:15;27.57;;;15.07;;
19358;SDS011;9815;52.334;20.890;2023-10-31T00:55:44;22.10;;;14.77;;
19358;SDS011;9815;52.334;20.890;2023-10-31T00:58:12;29.73;;;16.27;;
19358;SDS011;9815;52.334;20.890;2023-10-31T01:00:41;23.93;;;15.13;;
19358;SDS011;9815;52.334;20.890;2023-10-31T01:03:10;26.23;;;15.30;;
19358;SDS011;9815;52.334;20.890;2023-10-31T01:05:39;32.17;;;16.23;;
19358;SDS011;9815;52.334;20.890;2023-10-31T01:08:07;28.23;;;14.97;;
19358;SDS011;9815;52.334;20.890;2023-10-31T01:10:35;26.97;;;15.00;;
19358;SDS011;9815;52.334;20.890;2023-10-31T01:13:04;28.13;;;15.03;;
19358;SDS011;9815;52.334;20.890;2023-10-31T01:15:33;28.10;;;16.07;;
19358;SDS011;9815;52.334;20.890;2023-10-31T01:18:01;30.93;;;15.30;;
19358;SDS011;9815;52.334;20.890;2023-10-31T01:20:31;30.03;;;15.83;;
19358;SDS011;9815;52.334;20.890;2023-10-31T01:23:00;34.93;;;15.93;;
19358;SDS011;9815;52.334;20.890;2023-10-31T01:25:28;29.57;;;16.00;;
19358;SDS011;9815;52.334;20.890;2023-10-31T01:27:57;24.07;;;14.87;;
19358;SDS011;9815;52.334;20.890;2023-10-31T01:30:25;25.77;;;14.80;;
19358;SDS011;9815;52.334;20.890;2023-10-31T01:32:53;26.13;;;14.80;;
19358;SDS011;9815;52.334;20.890;2023-10-31T01:35:22;28.90;;;14.83;;
19358;SDS011;9815;52.334;20.890;2023-10-31T01:37:51;24.47;;;14.67;;
19358;SDS011;9815;52.334;20.890;2023-10-31T01:40:20;28.43;;;14.03;;
19358;SDS011;9815;52.334;20.890;2023-10-31T01:42:48;22.93;;;13.70;;
19358;SDS011;9815;52.334;20.890;2023-10-31T01:45:17;27.97;;;12.97;;
19358;SDS011;9815;52.334;20.890;2023-10-31T01:47:45;23.90;;;13.27;;
19358;SDS011;9815;52.334;20.890;2023-10-31T01:50:16;24.93;;;12.80;;
19358;SDS011;9815;52.334;20.890;2023-10-31T01:52:45;27.53;;;13.03;;
19358;SDS011;9815;52.334;20.890;2023-10-31T01:55:15;22.43;;;12.60;;
19358;SDS011;9815;52.334;20.890;2023-10-31T01:57:44;22.37;;;12.33;;
19358;SDS011;9815;52.334;20.890;2023-10-31T02:00:14;25.73;;;12.43;;
19358;SDS011;9815;52.334;20.890;2023-10-31T02:02:44;21.30;;;12.33;;
19358;SDS011;9815;52.334;20.890;2023-10-31T02:05:13;25.67;;;13.23;;
19358;SDS011;9815;52.334;20.890;2023-10-31T02:07:44;25.23;;;13.00;;
19358;SDS011;9815;52.334;20.890;2023-10-31T02:10:13;20.43;;;11.73;;
19358;SDS011;9815;52.334;20.890;2023-10-31T02:12:43;28.63;;;13.40;;
19358;SDS011;9815;52.334;20.890;2023-10-31T02:15:11;24.27;;;12.33;;
19358;SDS011;9815;52.334;20.890;2023-10-31T02:17:39;27.73;;;12.10;;
19358;SDS011;9815;52.334;20.890;2023-10-31T02:20:08;24.60;;;12.50;;
19358;SDS011;9815;52.334;20.890;2023-10-31T02:22:38;21.77;;;11.87;;
19358;SDS011;9815;52.334;20.890;2023-10-31T02:25:15;27.13;;;13.00;;
19358;SDS011;9815;52.334;20.890;2023-10-31T02:27:44;22.97;;;12.43;;
19358;SDS011;9815;52.334;20.890;2023-10-31T02:30:13;22.17;;;11.80;;
19358;SDS011;9815;52.334;20.890;2023-10-31T02:32:42;21.83;;;12.60;;
19358;SDS011;9815;52.334;20.890;2023-10-31T02:35:10;22.37;;;11.13;;
19358;SDS011;9815;52.334;20.890;2023-10-31T02:37:41;24.93;;;11.77;;
19358;SDS011;9815;52.334;20.890;2023-10-31T02:40:10;21.03;;;11.87;;
19358;SDS011;9815;52.334;20.890;2023-10-31T02:42:39;27.67;;;11.60;;
19358;SDS011;9815;52.334;20.890;2023-10-31T02:45:08;22.53;;;11.53;;
19358;SDS011;9815;52.334;20.890;2023-10-31T02:47:36;27.43;;;11.87;;
19358;SDS011;9815;52.334;20.890;2023-10-31T02:50:05;24.13;;;12.00;;
19358;SDS011;9815;52.334;20.890;2023-10-31T02:52:34;21.80;;;11.07;;
19358;SDS011;9815;52.334;20.890;2023-10-31T02:55:04;22.37;;;11.13;;
19358;SDS011;9815;52.334;20.890;2023-10-31T02:57:32;21.30;;;10.83;;
19358;SDS011;9815;52.334;20.890;2023-10-31T03:00:01;22.63;;;10.47;;
19358;SDS011;9815;52.334;20.890;2023-10-31T03:02:29;18.63;;;10.80;;
19358;SDS011;9815;52.334;20.890;2023-10-31T03:04:58;22.90;;;10.53;;
19358;SDS011;9815;52.334;20.890;2023-10-31T03:07:26;16.13;;;9.60;;
19358;SDS011;9815;52.334;20.890;2023-10-31T03:09:54;21.77;;;9.53;;
19358;SDS011;9815;52.334;20.890;2023-10-31T03:12:24;17.83;;;9.17;;
19358;SDS011;9815;52.334;20.890;2023-10-31T03:14:52;18.53;;;9.67;;
19358;SDS011;9815;52.334;20.890;2023-10-31T03:17:21;18.00;;;9.33;;
19358;SDS011;9815;52.334;20.890;2023-10-31T03:19:52;18.50;;;9.33;;
19358;SDS011;9815;52.334;20.890;2023-10-31T03:22:20;17.30;;;9.10;;
19358;SDS011;9815;52.334;20.890;2023-10-31T03:24:49;19.43;;;9.27;;
19358;SDS011;9815;52.334;20.890;2023-10-31T03:27:17;18.30;;;9.33;;
19358;SDS011;9815;52.334;20.890;2023-10-31T03:29:47;23.40;;;9.30;;
19358;SDS011;9815;52.334;20.890;2023-10-31T03:32:15;17.03;;;8.93;;
19358;SDS011;9815;52.334;20.890;2023-10-31T03:34:43;15.93;;;8.80;;
19358;SDS011;9815;52.334;20.890;2023-10-31T03:37:12;16.27;;;8.47;;
19358;SDS011;9815;52.334;20.890;2023-10-31T03:39:40;19.77;;;8.03;;
19358;SDS011;9815;52.334;20.890;2023-10-31T03:42:09;17.73;;;9.33;;
19358;SDS011;9815;52.334;20.890;2023-10-31T03:44:37;17.20;;;8.73;;
19358;SDS011;9815;52.334;20.890;2023-10-31T03:47:07;20.13;;;8.67;;
19358;SDS011;9815;52.334;20.890;2023-10-31T03:49:37;29.60;;;8.80;;
19358;SDS011;9815;52.334;20.890;2023-10-31T03:52:06;18.83;;;8.73;;
19358;SDS011;9815;52.334;20.890;2023-10-31T03:54:34;12.10;;;8.07;;
19358;SDS011;9815;52.334;20.890;2023-10-31T03:57:02;19.83;;;7.77;;
19358;SDS011;9815;52.334;20.890;2023-10-31T03:59:31;12.53;;;7.63;;
19358;SDS011;9815;52.334;20.890;2023-10-31T04:01:59;17.40;;;7.33;;
19358;SDS011;9815;52.334;20.890;2023-10-31T04:04:29;13.70;;;7.60;;
19358;SDS011;9815;52.334;20.890;2023-10-31T04:06:57;16.43;;;7.13;;
19358;SDS011;9815;52.334;20.890;2023-10-31T04:09:25;13.93;;;6.80;;
19358;SDS011;9815;52.334;20.890;2023-10-31T04:11:54;11.07;;;6.17;;
19358;SDS011;9815;52.334;20.890;2023-10-31T04:14:22;19.67;;;7.17;;
19358;SDS011;9815;52.334;20.890;2023-10-31T04:16:50;13.07;;;7.30;;
19358;SDS011;9815;52.334;20.890;2023-10-31T04:19:19;13.87;;;6.17;;
19358;SDS011;9815;52.334;20.890;2023-10-31T04:21:48;13.03;;;6.77;;
19358;SDS011;9815;52.334;20.890;2023-10-31T04:24:17;11.43;;;6.27;;
19358;SDS011;9815;52.334;20.890;2023-10-31T04:26:45;15.03;;;6.50;;
19358;SDS011;9815;52.334;20.890;2023-10-31T04:29:13;19.07;;;6.40;;
19358;SDS011;9815;52.334;20.890;2023-10-31T04:31:42;14.47;;;6.20;;
19358;SDS011;9815;52.334;20.890;2023-10-31T04:34:10;12.80;;;6.17;;
19358;SDS011;9815;52.334;20.890;2023-10-31T04:36:39;8.50;;;5.73;;
19358;SDS011;9815;52.334;20.890;2023-10-31T04:39:09;12.70;;;6.27;;
19358;SDS011;9815;52.334;20.890;2023-10-31T04:41:37;11.03;;;5.60;;
19358;SDS011;9815;52.334;20.890;2023-10-31T04:44:05;15.47;;;5.37;;
19358;SDS011;9815;52.334;20.890;2023-10-31T04:46:34;10.23;;;5.23;;
19358;SDS011;9815;52.334;20.890;2023-10-31T04:49:02;13.27;;;5.40;;
19358;SDS011;9815;52.334;20.890;2023-10-31T04:51:32;10.13;;;5.40;;
19358;SDS011;9815;52.334;20.890;2023-10-31T04:54:01;8.87;;;5.20;;
19358;SDS011;9815;52.334;20.890;2023-10-31T04:56:31;11.23;;;5.50;;
19358;SDS011;9815;52.334;20.890;2023-10-31T04:59:00;16.13;;;5.27;;
19358;SDS011;9815;52.334;20.890;2023-10-31T05:01:29;13.17;;;5.13;;
19358;SDS011;9815;52.334;20.890;2023-10-31T05:03:57;10.87;;;5.20;;
19358;SDS011;9815;52.334;20.890;2023-10-31T05:06:38;14.47;;;5.17;;
19358;SDS011;9815;52.334;20.890;2023-10-31T05:09:06;15.90;;;5.33;;
19358;SDS011;9815;52.334;20.890;2023-10-31T05:11:38;7.60;;;4.63;;
19358;SDS011;9815;52.334;20.890;2023-10-31T05:14:08;7.93;;;4.73;;
19358;SDS011;9815;52.334;20.890;2023-10-31T05:16:40;15.13;;;5.97;;
19358;SDS011;9815;52.334;20.890;2023-10-31T05:19:09;10.70;;;5.30;;
19358;SDS011;9815;52.334;20.890;2023-10-31T05:21:38;10.37;;;5.50;;
19358;SDS011;9815;52.334;20.890;2023-10-31T05:24:07;11.70;;;5.33;;
19358;SDS011;9815;52.334;20.890;2023-10-31T05:26:35;9.87;;;5.20;;
19358;SDS011;9815;52.334;20.890;2023-10-31T05:29:06;8.43;;;5.00;;
19358;SDS011;9815;52.334;20.890;2023-10-31T05:31:34;10.70;;;4.50;;
19358;SDS011;9815;52.334;20.890;2023-10-31T05:34:02;11.93;;;5.10;;
19358;SDS011;9815;52.334;20.890;2023-10-31T05:36:31;10.40;;;4.23;;
19358;SDS011;9815;52.334;20.890;2023-10-31T05:38:59;11.80;;;4.67;;
19358;SDS011;9815;52.334;20.890;2023-10-31T05:41:28;9.17;;;4.33;;
19358;SDS011;9815;52.334;20.890;2023-10-31T05:43:56;9.40;;;5.33;;
19358;SDS011;9815;52.334;20.890;2023-10-31T05:46:26;19.33;;;4.60;;
19358;SDS011;9815;52.334;20.890;2023-10-31T05:48:54;11.60;;;4.80;;
19358;SDS011;9815;52.334;20.890;2023-10-31T05:51:22;14.17;;;4.50;;
19358;SDS011;9815;52.334;20.890;2023-10-31T05:53:52;8.00;;;4.33;;
19358;SDS011;9815;52.334;20.890;2023-10-31T05:56:20;10.67;;;4.60;;
19358;SDS011;9815;52.334;20.890;2023-10-31T05:58:49;13.87;;;4.73;;
19358;SDS011;9815;52.334;20.890;2023-10-31T06:01:17;15.30;;;4.50;;
19358;SDS011;9815;52.334;20.890;2023-10-31T06:03:47;9.30;;;4.17;;
19358;SDS011;9815;52.334;20.890;2023-10-31T06:06:15;9.50;;;3.70;;
19358;SDS011;9815;52.334;20.890;2023-10-31T06:08:43;8.73;;;4.00;;
19358;SDS011;9815;52.334;20.890;2023-10-31T06:11:12;6.87;;;3.77;;
19358;SDS011;9815;52.334;20.890;2023-10-31T06:13:40;8.90;;;3.70;;
19358;SDS011;9815;52.334;20.890;2023-10-31T06:16:08;9.93;;;4.07;;
19358;SDS011;9815;52.334;20.890;2023-10-31T06:18:37;11.77;;;3.83;;
19358;SDS011;9815;52.334;20.890;2023-10-31T06:21:10;11.10;;;3.93;;
19358;SDS011;9815;52.334;20.890;2023-10-31T06:23:38;6.50;;;3.77;;
19358;SDS011;9815;52.334;20.890;2023-10-31T06:26:06;9.77;;;4.20;;
19358;SDS011;9815;52.334;20.890;2023-10-31T06:28:35;8.90;;;4.10;;
19358;SDS011;9815;52.334;20.890;2023-10-31T06:31:11;7.23;;;3.80;;
19358;SDS011;9815;52.334;20.890;2023-10-31T06:33:40;10.43;;;3.50;;
19358;SDS011;9815;52.334;20.890;2023-10-31T06:36:09;10.23;;;3.83;;
19358;SDS011;9815;52.334;20.890;2023-10-31T06:38:38;7.77;;;3.77;;
19358;SDS011;9815;52.334;20.890;2023-10-31T06:41:06;12.10;;;4.40;;
19358;SDS011;9815;52.334;20.890;2023-10-31T06:43:35;6.40;;;3.70;;
19358;SDS011;9815;52.334;20.890;2023-10-31T06:46:03;6.50;;;3.63;;
19358;SDS011;9815;52.334;20.890;2023-10-31T06:48:33;9.23;;;3.70;;
19358;SDS011;9815;52.334;20.890;2023-10-31T06:51:01;6.80;;;3.80;;
19358;SDS011;9815;52.334;20.890;2023-10-31T06:53:31;8.63;;;3.83;;
19358;SDS011;9815;52.334;20.890;2023-10-31T06:56:00;6.63;;;3.50;;
19358;SDS011;9815;52.334;20.890;2023-10-31T06:58:28;7.60;;;3.63;;
19358;SDS011;9815;52.334;20.890;2023-10-31T07:00:56;8.33;;;3.50;;
19358;SDS011;9815;52.334;20.890;2023-10-31T07:03:24;11.20;;;4.20;;
19358;SDS011;9815;52.334;20.890;2023-10-31T07:05:53;7.60;;;3.80;;
19358;SDS011;9815;52.334;20.890;2023-10-31T07:08:22;7.00;;;3.63;;
19358;SDS011;9815;52.334;20.890;2023-10-31T07:10:52;8.83;;;3.67;;
19358;SDS011;9815;52.334;20.890;2023-10-31T07:13:21;10.13;;;3.63;;
19358;SDS011;9815;52.334;20.890;2023-10-31T07:15:49;9.33;;;3.93;;
19358;SDS011;9815;52.334;20.890;2023-10-31T07:18:17;8.83;;;3.90;;
19358;SDS011;9815;52.334;20.890;2023-10-31T07:20:45;9.00;;;4.00;;
19358;SDS011;9815;52.334;20.890;2023-10-31T07:23:14;12.43;;;3.93;;
19358;SDS011;9815;52.334;20.890;2023-10-31T07:25:42;8.23;;;3.77;;
19358;SDS011;9815;52.334;20.890;2023-10-31T07:28:13;9.50;;;4.60;;
19358;SDS011;9815;52.334;20.890;2023-10-31T07:30:41;7.33;;;3.97;;
19358;SDS011;9815;52.334;20.890;2023-10-31T07:33:10;7.20;;;3.77;;
19358;SDS011;9815;52.334;20.890;2023-10-31T07:35:38;11.63;;;3.80;;
19358;SDS011;9815;52.334;20.890;2023-10-31T07:38:07;8.10;;;3.57;;
19358;SDS011;9815;52.334;20.890;2023-10-31T07:40:35;7.63;;;3.80;;
19358;SDS011;9815;52.334;20.890;2023-10-31T07:43:04;8.53;;;3.57;;
19358;SDS011;9815;52.334;20.890;2023-10-31T07:45:33;8.23;;;4.67;;
19358;SDS011;9815;52.334;20.890;2023-10-31T07:48:02;13.50;;;5.90;;
19358;SDS011;9815;52.334;20.890;2023-10-31T07:50:30;9.77;;;4.73;;
19358;SDS011;9815;52.334;20.890;2023-10-31T07:52:59;11.20;;;5.67;;
19358;SDS011;9815;52.334;20.890;2023-10-31T07:55:27;11.70;;;5.20;;
19358;SDS011;9815;52.334;20.890;2023-10-31T07:57:55;8.87;;;4.27;;
19358;SDS011;9815;52.334;20.890;2023-10-31T08:00:24;8.23;;;4.63;;
19358;SDS011;9815;52.334;20.890;2023-10-31T08:02:54;14.57;;;3.93;;
19358;SDS011;9815;52.334;20.890;2023-10-31T08:05:22;9.17;;;3.70;;
19358;SDS011;9815;52.334;20.890;2023-10-31T08:07:51;8.63;;;3.17;;
19358;SDS011;9815;52.334;20.890;2023-10-31T08:10:19;8.20;;;3.80;;
19358;SDS011;9815;52.334;20.890;2023-10-31T08:12:48;10.23;;;4.13;;
19358;SDS011;9815;52.334;20.890;2023-10-31T08:15:16;12.87;;;3.63;;
19358;SDS011;9815;52.334;20.890;2023-10-31T08:17:44;7.90;;;3.90;;
19358;SDS011;9815;52.334;20.890;2023-10-31T08:20:14;9.23;;;3.90;;
19358;SDS011;9815;52.334;20.890;2023-10-31T08:22:42;9.17;;;3.80;;
19358;SDS011;9815;52.334;20.890;2023-10-31T08:25:11;12.17;;;3.70;;
19358;SDS011;9815;52.334;20.890;2023-10-31T08:27:39;8.87;;;3.87;;
19358;SDS011;9815;52.334;20.890;2023-10-31T08:30:08;7.83;;;3.53;;
19358;SDS011;9815;52.334;20.890;2023-10-31T08:32:37;14.73;;;3.73;;
19358;SDS011;9815;52.334;20.890;2023-10-31T08:35:05;13.57;;;3.87;;
19358;SDS011;9815;52.334;20.890;2023-10-31T08:37:36;8.97;;;3.50;;
19358;SDS011;9815;52.334;20.890;2023-10-31T08:40:05;11.37;;;3.70;;
19358;SDS011;9815;52.334;20.890;2023-10-31T08:42:34;11.70;;;3.80;;
19358;SDS011;9815;52.334;20.890;2023-10-31T08:45:03;11.60;;;3.53;;
19358;SDS011;9815;52.334;20.890;2023-10-31T08:47:32;8.93;;;3.77;;
19358;SDS011;9815;52.334;20.890;2023-10-31T08:50:00;7.97;;;3.53;;
19358;SDS011;9815;52.334;20.890;2023-10-31T08:52:28;6.57;;;3.27;;
19358;SDS011;9815;52.334;20.890;2023-10-31T08:54:58;10.93;;;3.67;;
19358;SDS011;9815;52.334;20.890;2023-10-31T08:57:27;10.47;;;3.70;;
19358;SDS011;9815;52.334;20.890;2023-10-31T08:59:55;8.80;;;3.50;;
19358;SDS011;9815;52.334;20.890;2023-10-31T09:02:23;5.37;;;3.20;;
19358;SDS011;9815;52.334;20.890;2023-10-31T09:04:52;10.03;;;3.90;;
19358;SDS011;9815;52.334;20.890;2023-10-31T09:07:20;5.83;;;2.87;;
19358;SDS011;9815;52.334;20.890;2023-10-31T09:09:48;9.03;;;2.83;;
19358;SDS011;9815;52.334;20.890;2023-10-31T09:12:18;8.30;;;3.20;;
19358;SDS011;9815;52.334;20.890;2023-10-31T09:14:46;10.83;;;3.23;;
19358;SDS011;9815;52.334;20.890;2023-10-31T09:17:15;6.57;;;3.30;;
19358;SDS011;9815;52.334;20.890;2023-10-31T09:19:43;6.07;;;2.83;;
19358;SDS011;9815;52.334;20.890;2023-10-31T09:22:12;10.70;;;3.00;;
19358;SDS011;9815;52.334;20.890;2023-10-31T09:24:40;6.53;;;2.97;;
19358;SDS011;9815;52.334;20.890;2023-10-31T09:27:12;7.27;;;2.93;;
19358;SDS011;9815;52.334;20.890;2023-10-31T09:29:41;7.37;;;2.83;;
19358;SDS011;9815;52.334;20.890;2023-10-31T09:32:10;10.10;;;3.03;;
19358;SDS011;9815;52.334;20.890;2023-10-31T09:34:38;9.90;;;3.13;;
19358;SDS011;9815;52.334;20.890;2023-10-31T09:37:06;9.80;;;3.07;;
19358;SDS011;9815;52.334;20.890;2023-10-31T09:39:35;6.37;;;3.13;;
19358;SDS011;9815;52.334;20.890;2023-10-31T09:42:05;11.10;;;2.90;;
19358;SDS011;9815;52.334;20.890;2023-10-31T09:44:35;5.97;;;3.50;;
19358;SDS011;9815;52.334;20.890;2023-10-31T09:47:05;7.63;;;3.20;;
19358;SDS011;9815;52.334;20.890;2023-10-31T09:49:34;8.10;;;3.60;;
19358;SDS011;9815;52.334;20.890;2023-10-31T09:52:03;10.47;;;3.30;;
19358;SDS011;9815;52.334;20.890;2023-10-31T09:54:33;9.60;;;3.20;;
19358;SDS011;9815;52.334;20.890;2023-10-31T09:57:03;8.90;;;3.40;;
19358;SDS011;9815;52.334;20.890;2023-10-31T09:59:32;9.83;;;3.10;;
19358;SDS011;9815;52.334;20.890;2023-10-31T10:02:01;7.50;;;3.30;;
19358;SDS011;9815;52.334;20.890;2023-10-31T10:04:30;6.60;;;3.23;;
19358;SDS011;9815;52.334;20.890;2023-10-31T10:07:00;6.57;;;3.70;;
19358;SDS011;9815;52.334;20.890;2023-10-31T10:09:29;6.17;;;3.10;;
19358;SDS011;9815;52.334;20.890;2023-10-31T10:11:59;8.63;;;3.60;;
19358;SDS011;9815;52.334;20.890;2023-10-31T10:14:28;6.73;;;3.23;;
19358;SDS011;9815;52.334;20.890;2023-10-31T10:16:58;10.00;;;3.30;;
19358;SDS011;9815;52.334;20.890;2023-10-31T10:19:27;6.07;;;2.90;;
19358;SDS011;9815;52.334;20.890;2023-10-31T10:21:57;9.20;;;3.30;;
19358;SDS011;9815;52.334;20.890;2023-10-31T10:24:26;9.60;;;3.40;;
19358;SDS011;9815;52.334;20.890;2023-10-31T10:26:55;6.03;;;3.10;;
19358;SDS011;9815;52.334;20.890;2023-10-31T10:29:23;8.80;;;3.60;;
19358;SDS011;9815;52.334;20.890;2023-10-31T10:31:52;8.40;;;3.07;;
19358;SDS011;9815;52.334;20.890;2023-10-31T10:34:21;6.10;;;3.27;;
19358;SDS011;9815;52.334;20.890;2023-10-31T10:36:49;4.40;;;2.90;;
19358;SDS011;9815;52.334;20.890;2023-10-31T10:39:20;7.30;;;3.00;;
19358;SDS011;9815;52.334;20.890;2023-10-31T10:41:52;6.13;;;3.00;;
19358;SDS011;9815;52.334;20.890;2023-10-31T10:44:31;7.23;;;3.43;;
19358;SDS011;9815;52.334;20.890;2023-10-31T10:47:02;7.60;;;3.10;;
19358;SDS011;9815;52.334;20.890;2023-10-31T10:49:34;7.73;;;3.57;;
19358;SDS011;9815;52.334;20.890;2023-10-31T10:52:09;7.63;;;2.83;;
19358;SDS011;9815;52.334;20.890;2023-10-31T10:54:49;6.73;;;2.70;;
19358;SDS011;9815;52.334;20.890;2023-10-31T10:57:24;5.40;;;2.73;;
19358;SDS011;9815;52.334;20.890;2023-10-31T11:00:01;5.70;;;2.33;;
19358;SDS011;9815;52.334;20.890;2023-10-31T11:02:32;7.23;;;2.50;;
19358;SDS011;9815;52.334;20.890;2023-10-31T11:05:03;7.30;;;2.67;;
19358;SDS011;9815;52.334;20.890;2023-10-31T11:07:34;5.43;;;2.37;;
19358;SDS011;9815;52.334;20.890;2023-10-31T11:10:05;6.53;;;2.57;;
19358;SDS011;9815;52.334;20.890;2023-10-31T11:12:35;4.73;;;2.63;;
19358;SDS011;9815;52.334;20.890;2023-10-31T11:15:06;4.90;;;2.50;;
19358;SDS011;9815;52.334;20.890;2023-10-31T11:17:38;7.00;;;2.17;;
19358;SDS011;9815;52.334;20.890;2023-10-31T11:20:09;7.30;;;2.50;;
19358;SDS011;9815;52.334;20.890;2023-10-31T11:22:42;8.60;;;2.67;;
19358;SDS011;9815;52.334;20.890;2023-10-31T11:25:14;6.73;;;2.60;;
19358;SDS011;9815;52.334;20.890;2023-10-31T11:27:57;3.60;;;2.20;;
19358;SDS011;9815;52.334;20.890;2023-10-31T11:30:39;4.07;;;2.17;;
19358;SDS011;9815;52.334;20.890;2023-10-31T11:33:11;7.37;;;2.60;;
19358;SDS011;9815;52.334;20.890;2023-10-31T11:35:40;7.73;;;2.30;;
19358;SDS011;9815;52.334;20.890;2023-10-31T11:38:11;5.03;;;2.43;;
19358;SDS011;9815;52.334;20.890;2023-10-31T11:40:57;6.97;;;2.70;;
19358;SDS011;9815;52.334;20.890;2023-10-31T11:46:19;6.90;;;2.60;;
19358;SDS011;9815;52.334;20.890;2023-10-31T11:48:50;6.43;;;2.50;;
19358;SDS011;9815;52.334;20.890;2023-10-31T11:51:19;6.80;;;2.40;;
19358;SDS011;9815;52.334;20.890;2023-10-31T11:53:48;7.87;;;2.47;;
19358;SDS011;9815;52.334;20.890;2023-10-31T11:56:21;7.93;;;2.83;;
19358;SDS011;9815;52.334;20.890;2023-10-31T11:59:01;5.93;;;2.83;;
19358;SDS011;9815;52.334;20.890;2023-10-31T12:01:30;10.07;;;3.43;;
19358;SDS011;9815;52.334;20.890;2023-10-31T12:03:58;5.70;;;2.80;;
19358;SDS011;9815;52.334;20.890;2023-10-31T12:06:30;6.13;;;2.43;;
19358;SDS011;9815;52.334;20.890;2023-10-31T12:08:59;8.60;;;2.63;;
19358;SDS011;9815;52.334;20.890;2023-10-31T12:11:30;3.13;;;2.33;;
19358;SDS011;9815;52.334;20.890;2023-10-31T12:13:59;6.03;;;3.37;;
19358;SDS011;9815;52.334;20.890;2023-10-31T12:16:32;5.33;;;2.77;;
19358;SDS011;9815;52.334;20.890;2023-10-31T12:19:02;4.30;;;2.77;;
19358;SDS011;9815;52.334;20.890;2023-10-31T12:21:35;5.70;;;2.63;;
19358;SDS011;9815;52.334;20.890;2023-10-31T12:24:09;3.53;;;2.40;;
19358;SDS011;9815;52.334;20.890;2023-10-31T12:26:39;5.70;;;2.60;;
19358;SDS011;9815;52.334;20.890;2023-10-31T12:29:09;3.47;;;2.67;;
19358;SDS011;9815;52.334;20.890;2023-10-31T12:31:44;4.00;;;2.40;;
19358;SDS011;9815;52.334;20.890;2023-10-31T12:34:15;7.80;;;2.83;;
19358;SDS011;9815;52.334;20.890;2023-10-31T12:36:45;4.27;;;2.67;;
19358;SDS011;9815;52.334;20.890;2023-10-31T12:39:14;5.17;;;2.67;;
19358;SDS011;9815;52.334;20.890;2023-10-31T12:41:45;4.73;;;2.83;;
19358;SDS011;9815;52.334;20.890;2023-10-31T12:44:15;7.13;;;2.20;;
19358;SDS011;9815;52.334;20.890;2023-10-31T12:46:47;4.13;;;2.37;;
19358;SDS011;9815;52.334;20.890;2023-10-31T12:49:16;3.47;;;2.07;;
19358;SDS011;9815;52.334;20.890;2023-10-31T12:51:55;5.27;;;2.63;;
19358;SDS011;9815;52.334;20.890;2023-10-31T12:54:29;5.03;;;2.13;;
19358;SDS011;9815;52.334;20.890;2023-10-31T12:57:00;4.67;;;2.20;;
19358;SDS011;9815;52.334;20.890;2023-10-31T12:59:30;6.73;;;1.97;;
19358;SDS011;9815;52.334;20.890;2023-10-31T13:01:59;3.03;;;1.80;;
19358;SDS011;9815;52.334;20.890;2023-10-31T13:04:28;4.30;;;1.87;;
19358;SDS011;9815;52.334;20.890;2023-10-31T13:06:58;2.57;;;1.60;;
19358;SDS011;9815;52.334;20.890;2023-10-31T13:09:28;3.03;;;1.90;;
19358;SDS011;9815;52.334;20.890;2023-10-31T13:11:58;3.83;;;1.87;;
19358;SDS011;9815;52.334;20.890;2023-10-31T13:14:30;3.03;;;1.70;;
19358;SDS011;9815;52.334;20.890;2023-10-31T13:16:58;2.77;;;2.20;;
19358;SDS011;9815;52.334;20.890;2023-10-31T13:19:28;6.07;;;2.13;;
19358;SDS011;9815;52.334;20.890;2023-10-31T13:21:56;3.40;;;1.80;;
19358;SDS011;9815;52.334;20.890;2023-10-31T13:24:25;4.33;;;1.77;;
19358;SDS011;9815;52.334;20.890;2023-10-31T13:26:54;4.00;;;1.90;;
19358;SDS011;9815;52.334;20.890;2023-10-31T13:29:23;4.40;;;2.10;;
19358;SDS011;9815;52.334;20.890;2023-10-31T13:31:54;3.03;;;1.83;;
19358;SDS011;9815;52.334;20.890;2023-10-31T13:34:23;2.13;;;1.70;;
19358;SDS011;9815;52.334;20.890;2023-10-31T13:36:52;2.27;;;1.80;;
19358;SDS011;9815;52.334;20.890;2023-10-31T13:39:21;6.47;;;2.30;;
19358;SDS011;9815;52.334;20.890;2023-10-31T13:41:50;2.87;;;1.97;;
19358;SDS011;9815;52.334;20.890;2023-10-31T13:44:18;3.10;;;2.00;;
19358;SDS011;9815;52.334;20.890;2023-10-31T13:46:48;3.70;;;2.13;;
19358;SDS011;9815;52.334;20.890;2023-10-31T13:49:16;3.63;;;2.17;;
19358;SDS011;9815;52.334;20.890;2023-10-31T13:51:45;4.10;;;2.10;;
19358;SDS011;9815;52.334;20.890;2023-10-31T13:54:14;3.70;;;2.07;;
19358;SDS011;9815;52.334;20.890;2023-10-31T13:56:42;3.03;;;2.20;;
19358;SDS011;9815;52.334;20.890;2023-10-31T13:59:10;3.30;;;2.33;;
19358;SDS011;9815;52.334;20.890;2023-10-31T14:01:39;3.57;;;1.93;;
19358;SDS011;9815;52.334;20.890;2023-10-31T14:04:09;2.40;;;1.70;;
19358;SDS011;9815;52.334;20.890;2023-10-31T14:06:40;2.97;;;2.00;;
19358;SDS011;9815;52.334;20.890;2023-10-31T14:09:09;3.40;;;1.93;;
19358;SDS011;9815;52.334;20.890;2023-10-31T14:11:39;3.47;;;2.07;;
19358;SDS011;9815;52.334;20.890;2023-10-31T14:14:08;2.97;;;2.03;;
19358;SDS011;9815;52.334;20.890;2023-10-31T14:16:40;2.80;;;1.80;;
19358;SDS011;9815;52.334;20.890;2023-10-31T14:19:12;2.40;;;1.50;;
19358;SDS011;9815;52.334;20.890;2023-10-31T14:21:41;2.30;;;1.70;;
19358;SDS011;9815;52.334;20.890;2023-10-31T14:24:10;2.97;;;2.17;;
19358;SDS011;9815;52.334;20.890;2023-10-31T14:26:39;2.33;;;1.67;;
19358;SDS011;9815;52.334;20.890;2023-10-31T14:29:10;3.00;;;1.90;;
19358;SDS011;9815;52.334;20.890;2023-10-31T14:31:39;4.90;;;1.57;;
19358;SDS011;9815;52.334;20.890;2023-10-31T14:34:09;2.00;;;1.60;;
19358;SDS011;9815;52.334;20.890;2023-10-31T14:36:39;2.10;;;1.70;;
19358;SDS011;9815;52.334;20.890;2023-10-31T14:39:08;3.03;;;1.50;;
19358;SDS011;9815;52.334;20.890;2023-10-31T14:41:38;2.87;;;1.40;;
19358;SDS011;9815;52.334;20.890;2023-10-31T14:44:06;2.43;;;1.50;;
19358;SDS011;9815;52.334;20.890;2023-10-31T14:46:36;2.47;;;1.63;;
19358;SDS011;9815;52.334;20.890;2023-10-31T14:49:04;2.07;;;1.57;;
19358;SDS011;9815;52.334;20.890;2023-10-31T14:51:34;2.40;;;1.50;;
19358;SDS011;9815;52.334;20.890;2023-10-31T14:54:02;2.37;;;1.43;;